Time;durP1;ratioP1;P1;durP2;ratioP2;P2;SDS_P1;SDS_P2;PMS_P1;PMS_P2;Temp;Humidity;BMP_temperature;BMP_pressure;BME280_temperature;BME280_humidity;BME280_pressure;Samples;Min_cycle;Max_cycle;Signal;HPM_P1;HPM_P2
2022/06/14 00:00:56;;;;;;;;;;;;;;;;;;10443373;28;19925;-59
2022/06/14 00:05:58;;;;;;;;;;;;;;;;;;10439996;28;19929;-60
2022/06/14 00:11:00;;;;;;;;;;;;;;;;;;10442814;28;19931;-60
2022/06/14 00:16:02;;;;;;;;;;;;;;;;;;10435200;28;19932;-60
2022/06/14 00:21:04;;;;;;;;;;;;;;;;;;10432699;28;19925;-60
2022/06/14 00:26:06;;;;;;;;;;;;;;;;;;10438171;28;20245;-60
2022/06/14 00:31:08;;;;;;;;;;;;;;;;;;10442187;28;19929;-60
2022/06/14 00:36:10;;;;;;;;;;;;;;;;;;10459207;28;19964;-60
2022/06/14 00:41:13;;;;;;;;;;;;;;;;;;10457242;28;19924;-60
2022/06/14 00:46:15;;;;;;;;;;;;;;;;;;10457617;28;19932;-59
2022/06/14 00:51:17;;;;;;;;;;;;;;;;;;10457422;28;19932;-60
2022/06/14 00:56:19;;;;;;;;;;;;;;;;;;10458117;28;19925;-61
2022/06/14 01:01:21;;;;;;;;;;;;;;;;;;10456252;28;19932;-60
2022/06/14 01:06:24;;;;;;;;;;;;;;;;;;10457437;28;19925;-60
2022/06/14 01:11:27;;;;;;;;;;;;;;;;;;10375331;28;19926;-60
2022/06/14 01:16:29;;;;;;;;;;;;;;;;;;10396902;28;19929;-60
2022/06/14 01:21:31;;;;;;;;;;;;;;;;;;10445815;28;20289;-60
2022/06/14 01:26:33;;;;;;;;;;;;;;;;;;10456380;28;19929;-60
2022/06/14 01:31:35;;;;;;;;;;;;;;;;;;10457362;28;19925;-60
2022/06/14 01:36:37;;;;;;;;;;;;;;;;;;10455577;28;20023;-60
2022/06/14 01:41:39;;;;;;;;;;;;;;;;;;10455255;28;19933;-60
2022/06/14 01:46:41;;;;;;;;;;;;;;;;;;10456453;28;19929;-60
2022/06/14 01:51:52;;;;;;;;;;;;;;;;;;10428113;28;19925;-60
2022/06/14 01:56:55;;;;;;;;;;;;;;;;;;10415042;28;19925;-60
2022/06/14 02:01:57;;;;;;;;;;;;;;;;;;10452735;28;20283;-60
2022/06/14 02:06:59;;;;;;;;;;;;;;;;;;10444642;28;20394;-60
2022/06/14 02:12:01;;;;;;;;;;;;;;;;;;10423494;28;19929;-60
2022/06/14 02:17:03;;;;;;;;;;;;;;;;;;10423423;28;19925;-60
2022/06/14 02:22:05;;;;;;;;;;;;;;;;;;10424205;28;19979;-60
2022/06/14 02:27:08;;;;;;;;;;;;;;;;;;10422347;28;19960;-60
2022/06/14 02:32:10;;;;;;;;;;;;;;;;;;10422848;28;19925;-60
2022/06/14 02:37:13;;;;;;;;;;;;;;;;;;10439442;28;19931;-60
2022/06/14 02:42:15;;;;;;;;;;;;;;;;;;10461128;28;19925;-60
2022/06/14 02:47:17;;;;;;;;;;;;;;;;;;10462825;28;19925;-60
2022/06/14 02:52:19;;;;;;;;;;;;;;;;;;10463277;28;19929;-61
2022/06/14 02:57:22;;;;;;;;;;;;;;;;;;10462141;28;20291;-61
2022/06/14 03:02:24;;;;;;;;;;;;;;;;;;10424786;28;20291;-61
2022/06/14 03:07:26;;;;;;;;;;;;;;;;;;10420908;28;19933;-61
2022/06/14 03:12:28;;;;;;;;;;;;;;;;;;10420781;28;19931;-60
2022/06/14 03:17:30;;;;;;;;;;;;;;;;;;10420452;28;20288;-61
2022/06/14 03:22:33;;;;;;;;;;;;;;;;;;10421862;28;19929;-61
2022/06/14 03:27:35;;;;;;;;;;;;;;;;;;10426319;28;19929;-61
2022/06/14 03:32:37;;;;;;;;;;;;;;;;;;10461719;28;19925;-61
2022/06/14 03:37:39;;;;;;;;;;;;;;;;;;10460913;28;19950;-61
2022/06/14 03:42:41;;;;;;;;;;;;;;;;;;10459281;28;19932;-60
2022/06/14 03:47:43;;;;;;;;;;;;;;;;;;10460836;28;19932;-60
2022/06/14 03:52:45;;;;;;;;;;;;;;;;;;10460017;28;19925;-61
2022/06/14 03:57:47;;;;;;;;;;;;;;;;;;10459814;28;20373;-60
2022/06/14 04:02:56;;;;;;;;;;;;;;;;;;10458116;28;19928;-60
2022/06/14 04:07:58;;;;;;;;;;;;;;;;;;10459410;28;19925;-61
2022/06/14 04:13:00;;;;;;;;;;;;;;;;;;10460049;28;19929;-60
2022/06/14 04:18:02;;;;;;;;;;;;;;;;;;10458400;28;19932;-61
2022/06/14 04:23:04;;;;;;;;;;;;;;;;;;10376029;28;20293;-61
2022/06/14 04:28:06;;;;;;;;;;;;;;;;;;10377331;28;19932;-61
2022/06/14 04:33:08;;;;;;;;;;;;;;;;;;10380589;28;19925;-60
2022/06/14 04:38:12;;;;;;;;;;;;;;;;;;10418361;28;19928;-61
2022/06/14 04:43:14;;;;;;;;;;;;;;;;;;10416817;28;20373;-61
2022/06/14 04:48:16;;;;;;;;;;;;;;;;;;10417480;28;19925;-61
2022/06/14 04:53:18;;;;;;;;;;;;;;;;;;10417271;28;19925;-60
2022/06/14 04:58:20;;;;;;;;;;;;;;;;;;10418248;28;19928;-61
2022/06/14 05:03:22;;;;;;;;;;;;;;;;;;10416918;28;19925;-61
2022/06/14 05:08:25;;;;;;;;;;;;;;;;;;10416267;28;19925;-61
2022/06/14 05:13:27;;;;;;;;;;;;;;;;;;10444576;28;19925;-61
2022/06/14 05:18:29;;;;;;;;;;;;;;;;;;10452694;28;19932;-60
2022/06/14 05:23:31;;;;;;;;;;;;;;;;;;10416324;28;19932;-61
2022/06/14 05:28:33;;;;;;;;;;;;;;;;;;10416342;28;19929;-61
2022/06/14 05:33:37;;;;;;;;;;;;;;;;;;10421964;28;19929;-61
2022/06/14 05:38:40;;;;;;;;;;;;;;;;;;10455628;28;19932;-61
2022/06/14 05:43:43;;;;;;;;;;;;;;;;;;10456070;28;20043;-61
2022/06/14 05:48:45;;;;;;;;;;;;;;;;;;10454762;28;20384;-61
2022/06/14 05:53:47;;;;;;;;;;;;;;;;;;10455782;28;19925;-61
2022/06/14 05:58:49;;;;;;;;;;;;;;;;;;10436646;22;19925;-66
2022/06/14 06:03:51;;;;;;;;;;;;;;;;;;10415651;28;19931;-66
2022/06/14 06:08:53;;;;;;;;;;;;;;;;;;10414989;28;20277;-66
2022/06/14 06:13:55;;;;;;;;;;;;;;;;;;10413175;28;20372;-66
2022/06/14 06:18:57;;;;;;;;;;;;;;;;;;10406684;28;19929;-66
2022/06/14 06:23:59;;;;;;;;;;;;;;;;;;10373736;28;19932;-66
2022/06/14 06:29:02;;;;;;;;;;;;;;;;;;10374818;28;19925;-66
2022/06/14 06:34:04;;;;;;;;;;;;;;;;;;10374225;28;19925;-66
2022/06/14 06:39:06;;;;;;;;;;;;;;;;;;10372519;28;20283;-66
2022/06/14 06:44:09;;;;;;;;;;;;;;;;;;10409754;28;19933;-66
2022/06/14 06:49:12;;;;;;;;;;;;;;;;;;10419885;28;19925;-66
2022/06/14 06:54:14;;;;;;;;;;;;;;;;;;10384001;28;20292;-66
2022/06/14 06:59:16;;;;;;;;;;;;;;;;;;10380325;28;19925;-63
2022/06/14 07:04:18;;;;;;;;;;;;;;;;;;10380678;28;19925;-64
2022/06/14 07:09:20;;;;;;;;;;;;;;;;;;10380563;28;19926;-63
2022/06/14 07:14:23;;;;;;;;;;;;;;;;;;10387405;28;19932;-64
2022/06/14 07:19:25;;;;;;;;;;;;;;;;;;10411902;28;19925;-64
2022/06/14 07:24:29;;;;;;;;;;;;;;;;;;10420117;28;19952;-64
2022/06/14 07:29:31;;;;;;;;;;;;;;;;;;10420062;28;20283;-64
2022/06/14 07:34:33;;;;;;;;;;;;;;;;;;10382858;28;19925;-64
2022/06/14 07:39:35;;;;;;;;;;;;;;;;;;10378655;28;20277;-64
2022/06/14 07:44:37;;;;;;;;;;;;;;;;;;10380092;28;19933;-64
2022/06/14 07:49:39;;;;;;;;;;;;;;;;;;10378985;28;19925;-64
2022/06/14 07:54:41;;;;;;;;;;;;;;;;;;10379008;28;19925;-67
2022/06/14 07:59:43;;;;;;;;;;;;;;;;;;10377745;28;20439;-65
2022/06/14 08:04:45;;;;;;;;;;;;;;;;;;10377739;28;20292;-65
2022/06/14 08:09:48;;;;;;;;;;;;;;;;;;10378214;28;19926;-65
2022/06/14 08:14:50;;;;;;;;;;;;;;;;;;10377400;28;19926;-65
2022/06/14 08:19:52;;;;;;;;;;;;;;;;;;10377808;28;20258;-65
2022/06/14 08:24:54;;;;;;;;;;;;;;;;;;10377068;28;19929;-66
2022/06/14 08:29:56;;;;;;;;;;;;;;;;;;10376845;28;19925;-65
2022/06/14 08:34:58;;;;;;;;;;;;;;;;;;10377289;28;19932;-65
2022/06/14 08:40:00;;;;;;;;;;;;;;;;;;10377055;28;19933;-66
2022/06/14 08:45:03;;;;;;;;;;;;;;;;;;10376314;28;19925;-66
2022/06/14 08:50:06;;;;;;;;;;;;;;;;;;10376699;28;19932;-66
2022/06/14 08:55:10;;;;;;;;;;;;;;;;;;10376584;28;19933;-66
2022/06/14 09:00:16;;;;;;;;;;;;;;;;;;10375775;28;20000;-66
2022/06/14 09:05:18;;;;;;;;;;;;;;;;;;10376228;28;19925;-65
2022/06/14 09:10:20;;;;;;;;;;;;;;;;;;10374500;28;19932;-65
2022/06/14 09:15:22;;;;;;;;;;;;;;;;;;10375991;28;19925;-66
2022/06/14 09:20:24;;;;;;;;;;;;;;;;;;10375667;28;19935;-66
2022/06/14 09:25:26;;;;;;;;;;;;;;;;;;10375811;28;19926;-66
2022/06/14 09:30:28;;;;;;;;;;;;;;;;;;10375498;28;19925;-66
2022/06/14 09:35:30;;;;;;;;;;;;;;;;;;10374708;28;20284;-66
2022/06/14 09:40:33;;;;;;;;;;;;;;;;;;10374584;28;19929;-66
2022/06/14 09:45:35;;;;;;;;;;;;;;;;;;10375187;28;19937;-66
2022/06/14 09:50:37;;;;;;;;;;;;;;;;;;10375086;28;19936;-66
2022/06/14 09:55:39;;;;;;;;;;;;;;;;;;10374302;28;19949;-66
2022/06/14 10:00:41;;;;;;;;;;;;;;;;;;10374183;28;19932;-66
2022/06/14 10:05:43;;;;;;;;;;;;;;;;;;10374762;28;19925;-66
2022/06/14 10:10:45;;;;;;;;;;;;;;;;;;10374069;28;19930;-66
2022/06/14 10:15:47;;;;;;;;;;;;;;;;;;10374614;28;19968;-67
2022/06/14 10:20:49;;;;;;;;;;;;;;;;;;10375365;28;20016;-66
2022/06/14 10:31:12;;;;;;;;;;;;;;;;;;10381408;28;20384;-66
2022/06/14 10:36:15;;;;;;;;;;;;;;;;;;10385799;28;20389;-66
2022/06/14 10:41:17;;;;;;;;;;;;;;;;;;10381979;28;19926;-66
2022/06/14 10:46:19;;;;;;;;;;;;;;;;;;10384584;28;19926;-66
2022/06/14 10:51:21;;;;;;;;;;;;;;;;;;10381599;28;19936;-66
2022/06/14 10:56:23;;;;;;;;;;;;;;;;;;10381565;28;19936;-66
2022/06/14 11:01:25;;;;;;;;;;;;;;;;;;10380268;28;19945;-67
2022/06/14 11:06:27;;;;;;;;;;;;;;;;;;10381156;28;19932;-66
2022/06/14 11:11:29;;;;;;;;;;;;;;;;;;10380528;28;19932;-67
2022/06/14 11:16:31;;;;;;;;;;;;;;;;;;10380776;28;20276;-66
2022/06/14 11:21:33;;;;;;;;;;;;;;;;;;10379439;28;19925;-66
2022/06/14 11:26:36;;;;;;;;;;;;;;;;;;10380976;28;19929;-66
2022/06/14 11:31:38;;;;;;;;;;;;;;;;;;10378746;28;20396;-67
2022/06/14 11:36:40;;;;;;;;;;;;;;;;;;10418815;28;19932;-67
2022/06/14 11:41:43;;;;;;;;;;;;;;;;;;10419654;28;19925;-67
2022/06/14 11:46:45;;;;;;;;;;;;;;;;;;10419757;28;20279;-67
2022/06/14 11:51:47;;;;;;;;;;;;;;;;;;10419342;28;20442;-67
2022/06/14 11:56:49;;;;;;;;;;;;;;;;;;10419533;28;19925;-67
2022/06/14 12:01:51;;;;;;;;;;;;;;;;;;10419529;28;19925;-67
2022/06/14 12:06:53;;;;;;;;;;;;;;;;;;10418743;28;19932;-67
2022/06/14 12:11:55;;;;;;;;;;;;;;;;;;10419141;28;19929;-67
2022/06/14 12:16:57;;;;;;;;;;;;;;;;;;10409660;28;19925;-67
2022/06/14 12:22:00;;;;;;;;;;;;;;;;;;10412617;28;19925;-67
2022/06/14 12:27:02;;;;;;;;;;;;;;;;;;10374760;28;19925;-67
2022/06/14 12:32:04;;;;;;;;;;;;;;;;;;10376571;28;19925;-67
2022/06/14 12:37:07;;;;;;;;;;;;;;;;;;10387744;28;19925;-66
2022/06/14 12:42:09;;;;;;;;;;;;;;;;;;10377988;28;19925;-67
2022/06/14 12:47:11;;;;;;;;;;;;;;;;;;10378825;28;19933;-67
2022/06/14 12:52:13;;;;;;;;;;;;;;;;;;10405076;28;19952;-67
2022/06/14 12:57:16;;;;;;;;;;;;;;;;;;10393808;28;20654;-66
2022/06/14 13:02:18;;;;;;;;;;;;;;;;;;10409623;28;19929;-67
2022/06/14 13:07:20;;;;;;;;;;;;;;;;;;10409424;28;19932;-67
2022/06/14 13:12:22;;;;;;;;;;;;;;;;;;10409989;28;20255;-67
2022/06/14 13:17:24;;;;;;;;;;;;;;;;;;10378048;28;19936;-67
2022/06/14 13:22:26;;;;;;;;;;;;;;;;;;10368721;28;19934;-67
2022/06/14 13:27:28;;;;;;;;;;;;;;;;;;10368721;28;19929;-67
2022/06/14 13:32:30;;;;;;;;;;;;;;;;;;10367859;28;19929;-67
2022/06/14 13:37:32;;;;;;;;;;;;;;;;;;10367900;28;19952;-66
2022/06/14 13:42:35;;;;;;;;;;;;;;;;;;10367554;28;19937;-66
2022/06/14 13:47:37;;;;;;;;;;;;;;;;;;10384646;28;19929;-67
2022/06/14 13:52:39;;;;;;;;;;;;;;;;;;10408129;28;19930;-66
2022/06/14 13:57:47;;;;;;;;;;;;;;;;;;10378447;28;20594;-66
2022/06/14 14:02:49;;;;;;;;;;;;;;;;;;10376179;28;19929;-66
2022/06/14 14:07:51;;;;;;;;;;;;;;;;;;10376532;28;20004;-66
2022/06/14 14:12:53;;;;;;;;;;;;;;;;;;10387303;28;20434;-66
2022/06/14 14:17:55;;;;;;;;;;;;;;;;;;10416502;28;19933;-66
2022/06/14 14:22:58;;;;;;;;;;;;;;;;;;10415441;28;20360;-66
2022/06/14 14:28:00;;;;;;;;;;;;;;;;;;10414622;28;19936;-66
2022/06/14 14:33:05;;;;;;;;;;;;;;;;;;10415948;28;20331;-66
2022/06/14 14:38:07;;;;;;;;;;;;;;;;;;10414488;28;20493;-66
2022/06/14 14:43:09;;;;;;;;;;;;;;;;;;10398763;28;19934;-66
2022/06/14 14:48:12;;;;;;;;;;;;;;;;;;10375625;28;19929;-66
2022/06/14 14:53:14;;;;;;;;;;;;;;;;;;10373481;28;19937;-67
2022/06/14 14:58:16;;;;;;;;;;;;;;;;;;10371402;28;19929;-65
2022/06/14 15:08:39;;;;;;;;;;;;;;;;;;10380404;28;20292;-65
2022/06/14 15:13:42;;;;;;;;;;;;;;;;;;10380521;28;19926;-65
2022/06/14 15:24:04;;;;;;;;;;;;;;;;;;10380824;28;19926;-64
2022/06/14 15:29:06;;;;;;;;;;;;;;;;;;10379883;28;20300;-65
2022/06/14 15:34:08;;;;;;;;;;;;;;;;;;10378816;28;19925;-65
2022/06/14 15:39:11;;;;;;;;;;;;;;;;;;10407841;28;19925;-65
2022/06/14 15:44:15;;;;;;;;;;;;;;;;;;10420248;28;20377;-65
2022/06/14 15:49:17;;;;;;;;;;;;;;;;;;10418200;28;20390;-65
2022/06/14 15:54:19;;;;;;;;;;;;;;;;;;10392141;28;19925;-66
2022/06/14 15:59:21;;;;;;;;;;;;;;;;;;10378212;28;19926;-67
2022/06/14 16:04:26;;;;;;;;;;;;;;;;;;10381784;28;20324;-66
2022/06/14 16:09:28;;;;;;;;;;;;;;;;;;10378321;28;19926;-66
2022/06/14 16:14:31;;;;;;;;;;;;;;;;;;10378137;28;19926;-66
2022/06/14 16:19:33;;;;;;;;;;;;;;;;;;10388106;28;19932;-66
2022/06/14 16:24:35;;;;;;;;;;;;;;;;;;10389900;28;19932;-66
2022/06/14 16:29:38;;;;;;;;;;;;;;;;;;10418175;28;19932;-66
2022/06/14 16:34:40;;;;;;;;;;;;;;;;;;10418441;28;19925;-66
2022/06/14 16:39:42;;;;;;;;;;;;;;;;;;10416304;28;20265;-66
2022/06/14 16:44:44;;;;;;;;;;;;;;;;;;10416200;28;19925;-66
2022/06/14 16:49:46;;;;;;;;;;;;;;;;;;10416010;28;19936;-66
2022/06/14 16:54:48;;;;;;;;;;;;;;;;;;10417515;28;19936;-66
2022/06/14 16:59:51;;;;;;;;;;;;;;;;;;10416502;28;20301;-65
2022/06/14 17:04:53;;;;;;;;;;;;;;;;;;10412743;28;19933;-65
2022/06/14 17:09:56;;;;;;;;;;;;;;;;;;10386347;28;19926;-65
2022/06/14 17:14:58;;;;;;;;;;;;;;;;;;10374705;28;19925;-66
2022/06/14 17:20:00;;;;;;;;;;;;;;;;;;10379150;28;19925;-66
2022/06/14 17:25:02;;;;;;;;;;;;;;;;;;10415536;28;19928;-66
2022/06/14 17:30:08;;;;;;;;;;;;;;;;;;10412756;28;19932;-66
2022/06/14 17:35:10;;;;;;;;;;;;;;;;;;10387911;28;19926;-66
2022/06/14 17:40:12;;;;;;;;;;;;;;;;;;10375145;28;19925;-65
2022/06/14 17:45:16;;;;;;;;;;;;;;;;;;10373777;28;20377;-65
2022/06/14 17:50:18;;;;;;;;;;;;;;;;;;10375964;28;19933;-65
2022/06/14 17:55:20;;;;;;;;;;;;;;;;;;10377274;28;19926;-65
2022/06/14 18:00:22;;;;;;;;;;;;;;;;;;10388673;28;19940;-65
2022/06/14 18:05:24;;;;;;;;;;;;;;;;;;10396233;28;19932;-65
2022/06/14 18:10:26;;;;;;;;;;;;;;;;;;10370521;28;20293;-65
2022/06/14 18:15:28;;;;;;;;;;;;;;;;;;10375020;22;19933;-67
2022/06/14 18:25:52;;;;;;;;;;;;;;;;;;10358924;28;19929;-67
2022/06/14 18:30:54;;;;;;;;;;;;;;;;;;10366650;28;20387;-67
2022/06/14 18:35:56;;;;;;;;;;;;;;;;;;10367259;28;19944;-67
2022/06/14 18:40:58;;;;;;;;;;;;;;;;;;10366943;28;19940;-67
2022/06/14 18:46:00;;;;;;;;;;;;;;;;;;10375974;28;19936;-68
2022/06/14 18:51:03;;;;;;;;;;;;;;;;;;10414888;28;19933;-67
2022/06/14 18:56:05;;;;;;;;;;;;;;;;;;10415289;28;20012;-67
2022/06/14 19:01:08;;;;;;;;;;;;;;;;;;10386858;28;20040;-67
2022/06/14 19:06:12;;;;;;;;;;;;;;;;;;10362148;28;20005;-67
2022/06/14 19:11:14;;;;;;;;;;;;;;;;;;10408157;28;19929;-67
2022/06/14 19:16:16;;;;;;;;;;;;;;;;;;10379055;28;19929;-67
2022/06/14 19:21:18;;;;;;;;;;;;;;;;;;10373017;28;19980;-67
2022/06/14 19:26:20;;;;;;;;;;;;;;;;;;10374347;28;19929;-67
2022/06/14 19:31:23;;;;;;;;;;;;;;;;;;10372305;28;20368;-67
2022/06/14 19:36:27;;;;;;;;;;;;;;;;;;10372799;28;19964;-67
2022/06/14 19:41:29;;;;;;;;;;;;;;;;;;10381961;28;20376;-67
2022/06/14 19:46:32;;;;;;;;;;;;;;;;;;10406461;28;19940;-67
2022/06/14 19:51:34;;;;;;;;;;;;;;;;;;10372200;28;19960;-67
2022/06/14 19:56:36;;;;;;;;;;;;;;;;;;10372032;28;20388;-67
2022/06/14 20:01:39;;;;;;;;;;;;;;;;;;10371630;28;19933;-67
2022/06/14 20:06:42;;;;;;;;;;;;;;;;;;10375656;28;19929;-66
2022/06/14 20:11:44;;;;;;;;;;;;;;;;;;10413009;28;19925;-66
2022/06/14 20:16:46;;;;;;;;;;;;;;;;;;10406267;28;20376;-66
2022/06/14 20:21:50;;;;;;;;;;;;;;;;;;10377300;28;19929;-66
2022/06/14 20:26:54;;;;;;;;;;;;;;;;;;10378310;28;19977;-66
2022/06/14 20:31:56;;;;;;;;;;;;;;;;;;10377580;28;19932;-67
2022/06/14 20:36:59;;;;;;;;;;;;;;;;;;10376549;28;20347;-67
2022/06/14 20:42:01;;;;;;;;;;;;;;;;;;10377047;28;19932;-66
2022/06/14 20:47:03;;;;;;;;;;;;;;;;;;10387904;28;20406;-66
2022/06/14 20:52:05;;;;;;;;;;;;;;;;;;10416558;28;19925;-67
2022/06/14 20:57:07;;;;;;;;;;;;;;;;;;10411251;28;19929;-66
2022/06/14 21:02:11;;;;;;;;;;;;;;;;;;10417206;28;19932;-66
2022/06/14 21:07:13;;;;;;;;;;;;;;;;;;10414629;28;20416;-66
2022/06/14 21:12:15;;;;;;;;;;;;;;;;;;10416023;28;19925;-67
2022/06/14 21:17:18;;;;;;;;;;;;;;;;;;10397844;28;19933;-67
2022/06/14 21:22:20;;;;;;;;;;;;;;;;;;10403716;28;19925;-66
2022/06/14 21:27:25;;;;;;;;;;;;;;;;;;10413182;28;19926;-66
2022/06/14 21:32:27;;;;;;;;;;;;;;;;;;10415932;28;20376;-66
2022/06/14 21:37:29;;;;;;;;;;;;;;;;;;10403393;28;20013;-66
2022/06/14 21:42:31;;;;;;;;;;;;;;;;;;10375114;28;19936;-66
2022/06/14 21:47:34;;;;;;;;;;;;;;;;;;10387851;28;20304;-66
2022/06/14 21:52:37;;;;;;;;;;;;;;;;;;10381946;28;19925;-66
2022/06/14 21:57:39;;;;;;;;;;;;;;;;;;10375006;28;19936;-66
2022/06/14 22:02:41;;;;;;;;;;;;;;;;;;10374263;28;19932;-66
2022/06/14 22:07:44;;;;;;;;;;;;;;;;;;10376502;28;20391;-66
2022/06/14 22:12:46;;;;;;;;;;;;;;;;;;10374866;28;20031;-66
2022/06/14 22:17:48;;;;;;;;;;;;;;;;;;10378917;28;19940;-66
2022/06/14 22:22:50;;;;;;;;;;;;;;;;;;10394044;28;20384;-66
2022/06/14 22:27:53;;;;;;;;;;;;;;;;;;10381679;28;20292;-66
2022/06/14 22:32:55;;;;;;;;;;;;;;;;;;10381795;28;19948;-66
2022/06/14 22:37:57;;;;;;;;;;;;;;;;;;10400459;28;19925;-66
2022/06/14 22:43:00;;;;;;;;;;;;;;;;;;10419383;28;19925;-66
2022/06/14 22:48:02;;;;;;;;;;;;;;;;;;10382809;28;19932;-66
2022/06/14 22:53:08;;;;;;;;;;;;;;;;;;10383847;28;19925;-66
2022/06/14 22:58:10;;;;;;;;;;;;;;;;;;10380713;28;19933;-66
2022/06/14 23:03:12;;;;;;;;;;;;;;;;;;10380920;28;19925;-66
2022/06/14 23:08:14;;;;;;;;;;;;;;;;;;10401743;28;19987;-66
2022/06/14 23:13:16;;;;;;;;;;;;;;;;;;10420811;28;19932;-66
2022/06/14 23:18:18;;;;;;;;;;;;;;;;;;10383961;28;19925;-66
2022/06/14 23:23:21;;;;;;;;;;;;;;;;;;10380673;28;19925;-66
2022/06/14 23:28:23;;;;;;;;;;;;;;;;;;10380558;28;19929;-66
2022/06/14 23:33:25;;;;;;;;;;;;;;;;;;10413090;28;20376;-66
2022/06/14 23:38:27;;;;;;;;;;;;;;;;;;10420323;28;19925;-66
2022/06/14 23:43:29;;;;;;;;;;;;;;;;;;10386728;28;19930;-66
2022/06/14 23:48:31;;;;;;;;;;;;;;;;;;10397025;28;19930;-66
2022/06/14 23:53:33;;;;;;;;;;;;;;;;;;10379184;28;19932;-66
2022/06/14 23:58:36;;;;;;;;;;;;;;;;;;10405958;28;19925;-66
